sensor_id;sensor_type;location;lat;lon;timestamp;P1;durP1;ratioP1;P2;durP2;ratioP2
47866;SDS011;33628;50.806;11.586;2023-06-26T00:00:31;9.55;;;4.82;;
47866;SDS011;33628;50.806;11.586;2023-06-26T00:02:58;9.48;;;4.63;;
47866;SDS011;33628;50.806;11.586;2023-06-26T00:05:25;6.70;;;4.80;;
47866;SDS011;33628;50.806;11.586;2023-06-26T00:07:53;6.10;;;4.53;;
47866;SDS011;33628;50.806;11.586;2023-06-26T00:10:20;6.95;;;4.85;;
47866;SDS011;33628;50.806;11.586;2023-06-26T00:12:48;8.75;;;5.07;;
47866;SDS011;33628;50.806;11.586;2023-06-26T00:15:14;6.10;;;5.28;;
47866;SDS011;33628;50.806;11.586;2023-06-26T00:17:41;7.88;;;5.07;;
47866;SDS011;33628;50.806;11.586;2023-06-26T00:20:08;7.38;;;4.47;;
47866;SDS011;33628;50.806;11.586;2023-06-26T00:22:38;5.85;;;4.78;;
47866;SDS011;33628;50.806;11.586;2023-06-26T00:25:06;6.05;;;4.80;;
47866;SDS011;33628;50.806;11.586;2023-06-26T00:27:33;7.25;;;4.65;;
47866;SDS011;33628;50.806;11.586;2023-06-26T00:30:01;6.63;;;4.72;;
47866;SDS011;33628;50.806;11.586;2023-06-26T00:32:28;6.60;;;5.07;;
47866;SDS011;33628;50.806;11.586;2023-06-26T00:34:55;6.47;;;5.07;;
47866;SDS011;33628;50.806;11.586;2023-06-26T00:37:24;6.75;;;4.75;;
47866;SDS011;33628;50.806;11.586;2023-06-26T00:39:55;7.30;;;5.03;;
47866;SDS011;33628;50.806;11.586;2023-06-26T00:42:22;8.35;;;5.20;;
47866;SDS011;33628;50.806;11.586;2023-06-26T00:44:49;7.50;;;5.07;;
47866;SDS011;33628;50.806;11.586;2023-06-26T00:47:17;6.05;;;4.63;;
47866;SDS011;33628;50.806;11.586;2023-06-26T00:49:44;12.45;;;5.10;;
47866;SDS011;33628;50.806;11.586;2023-06-26T00:52:11;5.63;;;4.80;;
47866;SDS011;33628;50.806;11.586;2023-06-26T00:54:38;6.30;;;4.97;;
47866;SDS011;33628;50.806;11.586;2023-06-26T00:57:05;5.55;;;4.82;;
47866;SDS011;33628;50.806;11.586;2023-06-26T00:59:36;5.10;;;4.30;;
47866;SDS011;33628;50.806;11.586;2023-06-26T01:02:02;5.40;;;4.55;;
47866;SDS011;33628;50.806;11.586;2023-06-26T01:04:31;6.20;;;4.88;;
47866;SDS011;33628;50.806;11.586;2023-06-26T01:06:58;6.53;;;4.90;;
47866;SDS011;33628;50.806;11.586;2023-06-26T01:09:25;8.38;;;5.32;;
47866;SDS011;33628;50.806;11.586;2023-06-26T01:11:52;5.80;;;5.20;;
47866;SDS011;33628;50.806;11.586;2023-06-26T01:14:18;7.93;;;4.97;;
47866;SDS011;33628;50.806;11.586;2023-06-26T01:16:45;9.23;;;5.70;;
47866;SDS011;33628;50.806;11.586;2023-06-26T01:19:18;8.95;;;5.60;;
47866;SDS011;33628;50.806;11.586;2023-06-26T01:21:58;7.95;;;5.85;;
47866;SDS011;33628;50.806;11.586;2023-06-26T01:24:31;6.40;;;5.10;;
47866;SDS011;33628;50.806;11.586;2023-06-26T01:27:01;8.20;;;5.30;;
47866;SDS011;33628;50.806;11.586;2023-06-26T01:29:28;8.05;;;5.97;;
47866;SDS011;33628;50.806;11.586;2023-06-26T01:31:56;7.72;;;5.57;;
47866;SDS011;33628;50.806;11.586;2023-06-26T01:34:23;9.25;;;5.45;;
47866;SDS011;33628;50.806;11.586;2023-06-26T01:36:50;9.35;;;5.57;;
47866;SDS011;33628;50.806;11.586;2023-06-26T01:39:17;9.63;;;5.93;;
47866;SDS011;33628;50.806;11.586;2023-06-26T01:41:44;6.53;;;5.60;;
47866;SDS011;33628;50.806;11.586;2023-06-26T01:44:15;7.60;;;5.35;;
47866;SDS011;33628;50.806;11.586;2023-06-26T01:46:48;7.70;;;5.97;;
47866;SDS011;33628;50.806;11.586;2023-06-26T01:49:33;10.98;;;6.00;;
47866;SDS011;33628;50.806;11.586;2023-06-26T01:52:07;6.68;;;5.43;;
47866;SDS011;33628;50.806;11.586;2023-06-26T01:54:39;6.30;;;5.47;;
47866;SDS011;33628;50.806;11.586;2023-06-26T01:57:10;7.60;;;5.55;;
47866;SDS011;33628;50.806;11.586;2023-06-26T01:59:40;8.27;;;5.63;;
47866;SDS011;33628;50.806;11.586;2023-06-26T02:02:08;9.23;;;5.45;;
47866;SDS011;33628;50.806;11.586;2023-06-26T02:04:37;8.23;;;6.05;;
47866;SDS011;33628;50.806;11.586;2023-06-26T02:07:05;6.85;;;6.05;;
47866;SDS011;33628;50.806;11.586;2023-06-26T02:09:32;7.93;;;6.15;;
47866;SDS011;33628;50.806;11.586;2023-06-26T02:11:58;8.18;;;6.18;;
47866;SDS011;33628;50.806;11.586;2023-06-26T02:14:25;8.63;;;6.53;;
47866;SDS011;33628;50.806;11.586;2023-06-26T02:16:53;10.73;;;5.82;;
47866;SDS011;33628;50.806;11.586;2023-06-26T02:19:20;9.48;;;5.97;;
47866;SDS011;33628;50.806;11.586;2023-06-26T02:21:47;8.15;;;6.22;;
47866;SDS011;33628;50.806;11.586;2023-06-26T02:24:15;11.18;;;6.15;;
47866;SDS011;33628;50.806;11.586;2023-06-26T02:26:42;8.65;;;6.43;;
47866;SDS011;33628;50.806;11.586;2023-06-26T02:29:10;8.20;;;6.47;;
47866;SDS011;33628;50.806;11.586;2023-06-26T02:31:39;10.50;;;6.28;;
47866;SDS011;33628;50.806;11.586;2023-06-26T02:34:07;8.93;;;6.30;;
47866;SDS011;33628;50.806;11.586;2023-06-26T02:36:34;7.95;;;6.03;;
47866;SDS011;33628;50.806;11.586;2023-06-26T02:39:04;7.45;;;6.07;;
47866;SDS011;33628;50.806;11.586;2023-06-26T02:41:33;8.00;;;6.75;;
47866;SDS011;33628;50.806;11.586;2023-06-26T02:43:59;7.75;;;6.10;;
47866;SDS011;33628;50.806;11.586;2023-06-26T02:46:26;12.65;;;6.43;;
47866;SDS011;33628;50.806;11.586;2023-06-26T02:48:53;9.43;;;6.25;;
47866;SDS011;33628;50.806;11.586;2023-06-26T02:51:22;7.85;;;5.88;;
47866;SDS011;33628;50.806;11.586;2023-06-26T02:53:49;9.88;;;7.03;;
47866;SDS011;33628;50.806;11.586;2023-06-26T02:56:16;9.95;;;6.15;;
47866;SDS011;33628;50.806;11.586;2023-06-26T02:58:42;9.75;;;6.53;;
47866;SDS011;33628;50.806;11.586;2023-06-26T03:01:09;7.95;;;6.43;;
47866;SDS011;33628;50.806;11.586;2023-06-26T03:03:37;9.10;;;6.90;;
47866;SDS011;33628;50.806;11.586;2023-06-26T03:06:09;7.10;;;5.95;;
47866;SDS011;33628;50.806;11.586;2023-06-26T03:08:37;8.38;;;6.53;;
47866;SDS011;33628;50.806;11.586;2023-06-26T03:11:07;13.02;;;7.05;;
47866;SDS011;33628;50.806;11.586;2023-06-26T03:13:35;9.88;;;6.45;;
47866;SDS011;33628;50.806;11.586;2023-06-26T03:16:02;10.65;;;7.15;;
47866;SDS011;33628;50.806;11.586;2023-06-26T03:18:30;10.10;;;6.03;;
47866;SDS011;33628;50.806;11.586;2023-06-26T03:20:57;8.55;;;6.25;;
47866;SDS011;33628;50.806;11.586;2023-06-26T03:23:24;7.68;;;6.50;;
47866;SDS011;33628;50.806;11.586;2023-06-26T03:25:52;9.07;;;6.07;;
47866;SDS011;33628;50.806;11.586;2023-06-26T03:31:04;9.65;;;6.30;;
47866;SDS011;33628;50.806;11.586;2023-06-26T03:33:31;11.65;;;6.18;;
47866;SDS011;33628;50.806;11.586;2023-06-26T03:35:59;10.80;;;7.18;;
47866;SDS011;33628;50.806;11.586;2023-06-26T03:38:25;9.27;;;6.25;;
47866;SDS011;33628;50.806;11.586;2023-06-26T03:40:55;9.05;;;6.53;;
47866;SDS011;33628;50.806;11.586;2023-06-26T03:43:23;11.50;;;6.75;;
47866;SDS011;33628;50.806;11.586;2023-06-26T03:46:08;8.55;;;6.63;;
47866;SDS011;33628;50.806;11.586;2023-06-26T03:48:35;8.40;;;6.65;;
47866;SDS011;33628;50.806;11.586;2023-06-26T03:51:03;14.00;;;6.95;;
47866;SDS011;33628;50.806;11.586;2023-06-26T03:53:32;11.57;;;7.10;;
47866;SDS011;33628;50.806;11.586;2023-06-26T03:56:00;11.85;;;6.90;;
47866;SDS011;33628;50.806;11.586;2023-06-26T03:58:27;13.43;;;7.00;;
47866;SDS011;33628;50.806;11.586;2023-06-26T04:00:54;8.82;;;7.20;;
47866;SDS011;33628;50.806;11.586;2023-06-26T04:03:22;12.40;;;6.97;;
47866;SDS011;33628;50.806;11.586;2023-06-26T04:05:49;12.43;;;6.78;;
47866;SDS011;33628;50.806;11.586;2023-06-26T04:08:16;10.20;;;7.05;;
47866;SDS011;33628;50.806;11.586;2023-06-26T04:10:43;11.35;;;6.93;;
47866;SDS011;33628;50.806;11.586;2023-06-26T04:13:12;13.82;;;7.38;;
47866;SDS011;33628;50.806;11.586;2023-06-26T04:15:40;12.98;;;7.78;;
47866;SDS011;33628;50.806;11.586;2023-06-26T04:18:06;14.13;;;7.68;;
47866;SDS011;33628;50.806;11.586;2023-06-26T04:20:37;12.57;;;7.50;;
47866;SDS011;33628;50.806;11.586;2023-06-26T04:23:05;12.93;;;7.00;;
47866;SDS011;33628;50.806;11.586;2023-06-26T04:25:31;8.93;;;7.53;;
47866;SDS011;33628;50.806;11.586;2023-06-26T04:27:58;9.75;;;7.57;;
47866;SDS011;33628;50.806;11.586;2023-06-26T04:30:26;9.43;;;7.55;;
47866;SDS011;33628;50.806;11.586;2023-06-26T04:32:52;13.40;;;8.23;;
47866;SDS011;33628;50.806;11.586;2023-06-26T04:35:19;11.60;;;7.45;;
47866;SDS011;33628;50.806;11.586;2023-06-26T04:37:46;12.93;;;7.55;;
47866;SDS011;33628;50.806;11.586;2023-06-26T04:40:13;10.07;;;7.65;;
47866;SDS011;33628;50.806;11.586;2023-06-26T04:42:40;12.43;;;8.25;;
47866;SDS011;33628;50.806;11.586;2023-06-26T04:45:06;11.25;;;7.32;;
47866;SDS011;33628;50.806;11.586;2023-06-26T04:47:35;13.13;;;7.85;;
47866;SDS011;33628;50.806;11.586;2023-06-26T04:50:01;13.65;;;8.30;;
47866;SDS011;33628;50.806;11.586;2023-06-26T04:52:28;11.98;;;8.00;;
47866;SDS011;33628;50.806;11.586;2023-06-26T04:54:55;12.27;;;8.32;;
47866;SDS011;33628;50.806;11.586;2023-06-26T04:57:24;12.13;;;8.00;;
47866;SDS011;33628;50.806;11.586;2023-06-26T04:59:51;13.70;;;8.82;;
47866;SDS011;33628;50.806;11.586;2023-06-26T05:02:17;11.90;;;8.50;;
47866;SDS011;33628;50.806;11.586;2023-06-26T05:04:45;11.93;;;8.30;;
47866;SDS011;33628;50.806;11.586;2023-06-26T05:07:13;15.45;;;8.57;;
47866;SDS011;33628;50.806;11.586;2023-06-26T05:09:39;11.05;;;8.45;;
47866;SDS011;33628;50.806;11.586;2023-06-26T05:12:06;10.10;;;8.40;;
47866;SDS011;33628;50.806;11.586;2023-06-26T05:14:33;12.63;;;8.60;;
47866;SDS011;33628;50.806;11.586;2023-06-26T05:17:00;11.35;;;8.63;;
47866;SDS011;33628;50.806;11.586;2023-06-26T05:19:26;11.50;;;8.60;;
47866;SDS011;33628;50.806;11.586;2023-06-26T05:21:54;11.10;;;9.00;;
47866;SDS011;33628;50.806;11.586;2023-06-26T05:24:22;9.88;;;8.73;;
47866;SDS011;33628;50.806;11.586;2023-06-26T05:26:49;12.25;;;8.70;;
47866;SDS011;33628;50.806;11.586;2023-06-26T05:29:17;10.63;;;8.43;;
47866;SDS011;33628;50.806;11.586;2023-06-26T05:31:44;11.95;;;9.00;;
47866;SDS011;33628;50.806;11.586;2023-06-26T05:34:11;10.00;;;8.57;;
47866;SDS011;33628;50.806;11.586;2023-06-26T05:36:38;11.95;;;8.65;;
47866;SDS011;33628;50.806;11.586;2023-06-26T05:39:07;11.30;;;8.75;;
47866;SDS011;33628;50.806;11.586;2023-06-26T05:41:37;10.75;;;8.60;;
47866;SDS011;33628;50.806;11.586;2023-06-26T05:44:04;9.63;;;8.63;;
47866;SDS011;33628;50.806;11.586;2023-06-26T05:46:30;12.30;;;8.38;;
47866;SDS011;33628;50.806;11.586;2023-06-26T05:48:57;12.43;;;8.60;;
47866;SDS011;33628;50.806;11.586;2023-06-26T05:51:24;11.27;;;8.85;;
47866;SDS011;33628;50.806;11.586;2023-06-26T05:53:51;11.88;;;8.18;;
47866;SDS011;33628;50.806;11.586;2023-06-26T05:56:19;12.68;;;8.48;;
47866;SDS011;33628;50.806;11.586;2023-06-26T05:58:46;9.48;;;7.90;;
47866;SDS011;33628;50.806;11.586;2023-06-26T06:01:13;11.48;;;7.78;;
47866;SDS011;33628;50.806;11.586;2023-06-26T06:03:40;8.98;;;8.02;;
47866;SDS011;33628;50.806;11.586;2023-06-26T06:06:07;8.85;;;7.57;;
47866;SDS011;33628;50.806;11.586;2023-06-26T06:08:36;14.18;;;8.30;;
47866;SDS011;33628;50.806;11.586;2023-06-26T06:11:03;12.75;;;7.95;;
47866;SDS011;33628;50.806;11.586;2023-06-26T06:13:31;12.10;;;8.15;;
47866;SDS011;33628;50.806;11.586;2023-06-26T06:15:58;8.60;;;7.70;;
47866;SDS011;33628;50.806;11.586;2023-06-26T06:18:26;9.50;;;7.70;;
47866;SDS011;33628;50.806;11.586;2023-06-26T06:20:52;13.82;;;8.00;;
47866;SDS011;33628;50.806;11.586;2023-06-26T06:23:19;8.77;;;7.50;;
47866;SDS011;33628;50.806;11.586;2023-06-26T06:25:46;9.13;;;8.13;;
47866;SDS011;33628;50.806;11.586;2023-06-26T06:28:13;11.00;;;7.95;;
47866;SDS011;33628;50.806;11.586;2023-06-26T06:30:43;9.38;;;7.25;;
47866;SDS011;33628;50.806;11.586;2023-06-26T06:33:10;10.30;;;7.40;;
47866;SDS011;33628;50.806;11.586;2023-06-26T06:35:37;7.90;;;7.13;;
47866;SDS011;33628;50.806;11.586;2023-06-26T06:38:04;11.50;;;7.38;;
47866;SDS011;33628;50.806;11.586;2023-06-26T06:40:31;10.02;;;8.10;;
47866;SDS011;33628;50.806;11.586;2023-06-26T06:42:58;8.23;;;7.38;;
47866;SDS011;33628;50.806;11.586;2023-06-26T06:45:24;10.07;;;7.13;;
47866;SDS011;33628;50.806;11.586;2023-06-26T06:47:53;11.27;;;7.90;;
47866;SDS011;33628;50.806;11.586;2023-06-26T06:50:20;11.18;;;7.85;;
47866;SDS011;33628;50.806;11.586;2023-06-26T06:52:46;9.18;;;7.50;;
47866;SDS011;33628;50.806;11.586;2023-06-26T06:55:13;8.55;;;7.65;;
47866;SDS011;33628;50.806;11.586;2023-06-26T06:57:40;11.52;;;7.88;;
47866;SDS011;33628;50.806;11.586;2023-06-26T07:00:08;9.13;;;7.28;;
47866;SDS011;33628;50.806;11.586;2023-06-26T07:02:36;12.77;;;8.35;;
47866;SDS011;33628;50.806;11.586;2023-06-26T07:05:04;8.32;;;7.38;;
47866;SDS011;33628;50.806;11.586;2023-06-26T07:07:32;8.63;;;7.30;;
47866;SDS011;33628;50.806;11.586;2023-06-26T07:10:00;8.38;;;7.38;;
47866;SDS011;33628;50.806;11.586;2023-06-26T07:12:28;8.75;;;6.95;;
47866;SDS011;33628;50.806;11.586;2023-06-26T07:14:55;11.13;;;7.88;;
47866;SDS011;33628;50.806;11.586;2023-06-26T07:17:22;8.38;;;7.20;;
47866;SDS011;33628;50.806;11.586;2023-06-26T07:19:51;11.30;;;7.75;;
47866;SDS011;33628;50.806;11.586;2023-06-26T07:26:26;11.23;;;7.10;;
47866;SDS011;33628;50.806;11.586;2023-06-26T07:28:52;10.45;;;6.72;;
47866;SDS011;33628;50.806;11.586;2023-06-26T07:31:22;9.40;;;6.97;;
47866;SDS011;33628;50.806;11.586;2023-06-26T07:33:48;8.52;;;6.80;;
47866;SDS011;33628;50.806;11.586;2023-06-26T07:36:15;7.15;;;6.45;;
47866;SDS011;33628;50.806;11.586;2023-06-26T07:38:42;7.57;;;6.78;;
47866;SDS011;33628;50.806;11.586;2023-06-26T07:41:09;7.28;;;6.43;;
47866;SDS011;33628;50.806;11.586;2023-06-26T07:43:37;7.53;;;6.63;;
47866;SDS011;33628;50.806;11.586;2023-06-26T07:46:04;7.15;;;6.53;;
47866;SDS011;33628;50.806;11.586;2023-06-26T07:48:30;11.55;;;6.93;;
47866;SDS011;33628;50.806;11.586;2023-06-26T07:50:57;7.63;;;6.82;;
47866;SDS011;33628;50.806;11.586;2023-06-26T07:53:24;8.63;;;6.88;;
47866;SDS011;33628;50.806;11.586;2023-06-26T07:55:50;8.02;;;6.30;;
47866;SDS011;33628;50.806;11.586;2023-06-26T07:58:17;6.85;;;6.15;;
47866;SDS011;33628;50.806;11.586;2023-06-26T08:00:45;7.05;;;6.28;;
47866;SDS011;33628;50.806;11.586;2023-06-26T08:03:12;7.00;;;6.22;;
47866;SDS011;33628;50.806;11.586;2023-06-26T08:05:39;7.15;;;6.45;;
47866;SDS011;33628;50.806;11.586;2023-06-26T08:08:05;7.80;;;6.45;;
47866;SDS011;33628;50.806;11.586;2023-06-26T08:10:32;7.22;;;6.05;;
47866;SDS011;33628;50.806;11.586;2023-06-26T08:13:00;9.82;;;6.18;;
47866;SDS011;33628;50.806;11.586;2023-06-26T08:15:27;7.28;;;6.50;;
47866;SDS011;33628;50.806;11.586;2023-06-26T08:17:54;7.70;;;5.22;;
47866;SDS011;33628;50.806;11.586;2023-06-26T08:20:21;6.35;;;5.72;;
47866;SDS011;33628;50.806;11.586;2023-06-26T08:22:48;6.90;;;5.53;;
47866;SDS011;33628;50.806;11.586;2023-06-26T08:25:17;8.27;;;5.75;;
47866;SDS011;33628;50.806;11.586;2023-06-26T08:27:43;6.35;;;5.57;;
47866;SDS011;33628;50.806;11.586;2023-06-26T08:30:10;9.23;;;8.27;;
47866;SDS011;33628;50.806;11.586;2023-06-26T08:32:37;6.53;;;5.75;;
47866;SDS011;33628;50.806;11.586;2023-06-26T08:35:06;6.68;;;5.40;;
47866;SDS011;33628;50.806;11.586;2023-06-26T08:37:33;6.55;;;5.70;;
47866;SDS011;33628;50.806;11.586;2023-06-26T08:39:59;7.97;;;5.80;;
47866;SDS011;33628;50.806;11.586;2023-06-26T08:42:29;5.63;;;5.13;;
47866;SDS011;33628;50.806;11.586;2023-06-26T08:44:56;6.22;;;5.63;;
47866;SDS011;33628;50.806;11.586;2023-06-26T08:47:23;5.57;;;5.07;;
47866;SDS011;33628;50.806;11.586;2023-06-26T08:49:51;6.90;;;5.55;;
47866;SDS011;33628;50.806;11.586;2023-06-26T08:52:22;7.30;;;5.68;;
47866;SDS011;33628;50.806;11.586;2023-06-26T08:54:51;5.60;;;5.10;;
47866;SDS011;33628;50.806;11.586;2023-06-26T08:57:21;5.80;;;5.07;;
47866;SDS011;33628;50.806;11.586;2023-06-26T08:59:49;7.35;;;5.05;;
47866;SDS011;33628;50.806;11.586;2023-06-26T09:02:15;5.75;;;5.13;;
47866;SDS011;33628;50.806;11.586;2023-06-26T09:04:42;5.07;;;4.57;;
47866;SDS011;33628;50.806;11.586;2023-06-26T09:07:09;5.55;;;4.90;;
47866;SDS011;33628;50.806;11.586;2023-06-26T09:09:37;6.05;;;4.78;;
47866;SDS011;33628;50.806;11.586;2023-06-26T09:12:04;5.30;;;4.80;;
47866;SDS011;33628;50.806;11.586;2023-06-26T09:14:31;5.70;;;4.82;;
47866;SDS011;33628;50.806;11.586;2023-06-26T09:16:58;5.60;;;5.10;;
47866;SDS011;33628;50.806;11.586;2023-06-26T09:19:24;6.22;;;4.68;;
47866;SDS011;33628;50.806;11.586;2023-06-26T09:21:51;5.68;;;4.80;;
47866;SDS011;33628;50.806;11.586;2023-06-26T09:24:18;5.63;;;4.82;;
47866;SDS011;33628;50.806;11.586;2023-06-26T09:26:46;6.60;;;5.15;;
47866;SDS011;33628;50.806;11.586;2023-06-26T09:29:13;5.88;;;4.60;;
47866;SDS011;33628;50.806;11.586;2023-06-26T09:31:40;5.32;;;4.82;;
47866;SDS011;33628;50.806;11.586;2023-06-26T09:34:09;5.25;;;4.75;;
47866;SDS011;33628;50.806;11.586;2023-06-26T09:36:36;6.20;;;4.97;;
47866;SDS011;33628;50.806;11.586;2023-06-26T09:39:03;6.88;;;4.68;;
47866;SDS011;33628;50.806;11.586;2023-06-26T09:41:34;4.97;;;4.47;;
47866;SDS011;33628;50.806;11.586;2023-06-26T09:44:02;5.07;;;4.65;;
47866;SDS011;33628;50.806;11.586;2023-06-26T09:46:29;7.80;;;4.68;;
47866;SDS011;33628;50.806;11.586;2023-06-26T09:49:01;5.32;;;4.82;;
47866;SDS011;33628;50.806;11.586;2023-06-26T09:51:29;6.55;;;5.03;;
47866;SDS011;33628;50.806;11.586;2023-06-26T09:53:56;5.20;;;4.70;;
47866;SDS011;33628;50.806;11.586;2023-06-26T09:56:24;7.60;;;4.70;;
47866;SDS011;33628;50.806;11.586;2023-06-26T09:58:51;5.07;;;4.63;;
47866;SDS011;33628;50.806;11.586;2023-06-26T10:01:19;7.97;;;5.15;;
47866;SDS011;33628;50.806;11.586;2023-06-26T10:03:45;6.82;;;5.57;;
47866;SDS011;33628;50.806;11.586;2023-06-26T10:06:13;5.57;;;5.00;;
47866;SDS011;33628;50.806;11.586;2023-06-26T10:08:41;6.53;;;4.35;;
47866;SDS011;33628;50.806;11.586;2023-06-26T10:11:08;7.97;;;5.03;;
47866;SDS011;33628;50.806;11.586;2023-06-26T10:13:38;7.97;;;5.00;;
47866;SDS011;33628;50.806;11.586;2023-06-26T10:16:07;5.07;;;4.35;;
47866;SDS011;33628;50.806;11.586;2023-06-26T10:18:36;5.32;;;4.35;;
47866;SDS011;33628;50.806;11.586;2023-06-26T10:21:05;6.30;;;4.70;;
47866;SDS011;33628;50.806;11.586;2023-06-26T10:23:32;5.45;;;4.70;;
47866;SDS011;33628;50.806;11.586;2023-06-26T10:26:01;5.68;;;4.30;;
47866;SDS011;33628;50.806;11.586;2023-06-26T10:28:27;5.75;;;4.82;;
47866;SDS011;33628;50.806;11.586;2023-06-26T10:30:55;7.68;;;4.75;;
47866;SDS011;33628;50.806;11.586;2023-06-26T10:33:22;5.00;;;4.25;;
47866;SDS011;33628;50.806;11.586;2023-06-26T10:35:50;4.55;;;4.15;;
47866;SDS011;33628;50.806;11.586;2023-06-26T10:38:18;5.25;;;4.75;;
47866;SDS011;33628;50.806;11.586;2023-06-26T10:40:46;4.57;;;4.05;;
47866;SDS011;33628;50.806;11.586;2023-06-26T10:43:14;5.15;;;4.63;;
47866;SDS011;33628;50.806;11.586;2023-06-26T10:45:45;4.85;;;4.35;;
47866;SDS011;33628;50.806;11.586;2023-06-26T10:48:15;4.90;;;4.50;;
47866;SDS011;33628;50.806;11.586;2023-06-26T10:50:42;5.10;;;4.35;;
47866;SDS011;33628;50.806;11.586;2023-06-26T10:53:10;5.18;;;4.30;;
47866;SDS011;33628;50.806;11.586;2023-06-26T10:55:43;4.63;;;4.22;;
47866;SDS011;33628;50.806;11.586;2023-06-26T10:58:27;5.60;;;4.10;;
47866;SDS011;33628;50.806;11.586;2023-06-26T11:01:14;5.13;;;4.10;;
47866;SDS011;33628;50.806;11.586;2023-06-26T11:03:45;5.97;;;3.72;;
47866;SDS011;33628;50.806;11.586;2023-06-26T11:06:14;4.68;;;4.25;;
47866;SDS011;33628;50.806;11.586;2023-06-26T11:08:47;4.90;;;4.00;;
47866;SDS011;33628;50.806;11.586;2023-06-26T11:11:15;5.55;;;4.20;;
47866;SDS011;33628;50.806;11.586;2023-06-26T11:13:42;5.88;;;4.43;;
47866;SDS011;33628;50.806;11.586;2023-06-26T11:16:10;4.30;;;3.90;;
47866;SDS011;33628;50.806;11.586;2023-06-26T11:18:38;4.85;;;4.45;;
47866;SDS011;33628;50.806;11.586;2023-06-26T11:21:05;4.55;;;4.15;;
47866;SDS011;33628;50.806;11.586;2023-06-26T11:23:34;5.70;;;4.45;;
47866;SDS011;33628;50.806;11.586;2023-06-26T11:26:15;4.30;;;3.88;;
47866;SDS011;33628;50.806;11.586;2023-06-26T11:28:46;10.15;;;8.90;;
47866;SDS011;33628;50.806;11.586;2023-06-26T11:31:23;4.70;;;4.20;;
47866;SDS011;33628;50.806;11.586;2023-06-26T11:33:51;5.22;;;4.30;;
47866;SDS011;33628;50.806;11.586;2023-06-26T11:36:19;4.47;;;4.07;;
47866;SDS011;33628;50.806;11.586;2023-06-26T11:38:45;7.18;;;3.97;;
47866;SDS011;33628;50.806;11.586;2023-06-26T11:41:18;4.20;;;3.80;;
47866;SDS011;33628;50.806;11.586;2023-06-26T11:43:44;4.32;;;3.90;;
47866;SDS011;33628;50.806;11.586;2023-06-26T11:46:11;6.30;;;4.45;;
47866;SDS011;33628;50.806;11.586;2023-06-26T11:48:38;4.55;;;4.03;;
47866;SDS011;33628;50.806;11.586;2023-06-26T11:51:05;6.70;;;4.13;;
47866;SDS011;33628;50.806;11.586;2023-06-26T11:53:32;4.47;;;4.07;;
47866;SDS011;33628;50.806;11.586;2023-06-26T11:56:10;5.15;;;4.28;;
47866;SDS011;33628;50.806;11.586;2023-06-26T11:58:38;5.13;;;4.60;;
47866;SDS011;33628;50.806;11.586;2023-06-26T12:01:21;4.82;;;4.32;;
47866;SDS011;33628;50.806;11.586;2023-06-26T12:03:48;5.30;;;4.43;;
47866;SDS011;33628;50.806;11.586;2023-06-26T12:06:15;5.07;;;4.45;;
47866;SDS011;33628;50.806;11.586;2023-06-26T12:08:42;5.95;;;4.05;;
47866;SDS011;33628;50.806;11.586;2023-06-26T12:11:08;4.90;;;4.10;;
47866;SDS011;33628;50.806;11.586;2023-06-26T12:13:35;6.70;;;4.47;;
47866;SDS011;33628;50.806;11.586;2023-06-26T12:16:04;5.13;;;4.63;;
47866;SDS011;33628;50.806;11.586;2023-06-26T12:18:33;5.43;;;4.25;;
47866;SDS011;33628;50.806;11.586;2023-06-26T12:21:00;5.65;;;4.95;;
47866;SDS011;33628;50.806;11.586;2023-06-26T12:23:31;6.53;;;4.90;;
47866;SDS011;33628;50.806;11.586;2023-06-26T12:25:58;6.68;;;4.95;;
47866;SDS011;33628;50.806;11.586;2023-06-26T12:28:25;5.03;;;4.53;;
47866;SDS011;33628;50.806;11.586;2023-06-26T12:33:42;7.82;;;4.63;;
47866;SDS011;33628;50.806;11.586;2023-06-26T12:36:10;5.30;;;4.65;;
47866;SDS011;33628;50.806;11.586;2023-06-26T12:38:37;5.70;;;4.53;;
47866;SDS011;33628;50.806;11.586;2023-06-26T12:41:04;5.35;;;4.40;;
47866;SDS011;33628;50.806;11.586;2023-06-26T12:43:31;4.97;;;4.47;;
47866;SDS011;33628;50.806;11.586;2023-06-26T12:45:57;6.00;;;4.50;;
47866;SDS011;33628;50.806;11.586;2023-06-26T12:48:37;6.90;;;4.70;;
47866;SDS011;33628;50.806;11.586;2023-06-26T12:51:08;9.43;;;4.82;;
47866;SDS011;33628;50.806;11.586;2023-06-26T12:53:35;5.13;;;4.55;;
47866;SDS011;33628;50.806;11.586;2023-06-26T12:56:02;8.10;;;5.03;;
47866;SDS011;33628;50.806;11.586;2023-06-26T12:58:29;7.22;;;5.38;;
47866;SDS011;33628;50.806;11.586;2023-06-26T13:00:56;7.45;;;4.72;;
47866;SDS011;33628;50.806;11.586;2023-06-26T13:03:24;5.32;;;4.80;;
47866;SDS011;33628;50.806;11.586;2023-06-26T13:05:52;5.65;;;4.80;;
47866;SDS011;33628;50.806;11.586;2023-06-26T13:08:19;9.82;;;5.07;;
47866;SDS011;33628;50.806;11.586;2023-06-26T13:10:45;5.05;;;4.55;;
47866;SDS011;33628;50.806;11.586;2023-06-26T13:13:12;5.65;;;4.97;;
47866;SDS011;33628;50.806;11.586;2023-06-26T13:15:40;6.00;;;4.70;;
47866;SDS011;33628;50.806;11.586;2023-06-26T13:18:07;5.25;;;4.75;;
47866;SDS011;33628;50.806;11.586;2023-06-26T13:20:34;7.70;;;4.70;;
47866;SDS011;33628;50.806;11.586;2023-06-26T13:23:02;6.72;;;4.95;;
47866;SDS011;33628;50.806;11.586;2023-06-26T13:25:29;5.75;;;5.00;;
47866;SDS011;33628;50.806;11.586;2023-06-26T13:27:56;5.95;;;5.22;;
47866;SDS011;33628;50.806;11.586;2023-06-26T13:30:22;6.95;;;4.80;;
47866;SDS011;33628;50.806;11.586;2023-06-26T13:32:50;5.25;;;4.60;;
47866;SDS011;33628;50.806;11.586;2023-06-26T13:35:16;5.60;;;5.05;;
47866;SDS011;33628;50.806;11.586;2023-06-26T13:37:44;5.38;;;4.80;;
47866;SDS011;33628;50.806;11.586;2023-06-26T13:40:12;5.93;;;5.28;;
47866;SDS011;33628;50.806;11.586;2023-06-26T13:42:39;6.32;;;4.90;;
47866;SDS011;33628;50.806;11.586;2023-06-26T13:45:06;7.43;;;5.43;;
47866;SDS011;33628;50.806;11.586;2023-06-26T13:47:33;9.18;;;5.40;;
47866;SDS011;33628;50.806;11.586;2023-06-26T13:50:00;8.05;;;4.85;;
47866;SDS011;33628;50.806;11.586;2023-06-26T13:52:27;7.13;;;5.03;;
47866;SDS011;33628;50.806;11.586;2023-06-26T13:54:54;6.13;;;5.03;;
47866;SDS011;33628;50.806;11.586;2023-06-26T13:57:22;11.40;;;4.65;;
47866;SDS011;33628;50.806;11.586;2023-06-26T13:59:48;5.38;;;4.55;;
47866;SDS011;33628;50.806;11.586;2023-06-26T14:02:15;9.13;;;5.38;;
47866;SDS011;33628;50.806;11.586;2023-06-26T14:04:42;9.13;;;5.28;;
47866;SDS011;33628;50.806;11.586;2023-06-26T14:07:09;9.00;;;5.30;;
47866;SDS011;33628;50.806;11.586;2023-06-26T14:09:35;11.50;;;5.75;;
47866;SDS011;33628;50.806;11.586;2023-06-26T14:12:02;8.77;;;5.15;;
47866;SDS011;33628;50.806;11.586;2023-06-26T14:14:31;6.32;;;5.60;;
47866;SDS011;33628;50.806;11.586;2023-06-26T14:16:58;7.22;;;5.63;;
47866;SDS011;33628;50.806;11.586;2023-06-26T14:19:25;7.80;;;5.38;;
47866;SDS011;33628;50.806;11.586;2023-06-26T14:21:52;9.23;;;5.63;;
47866;SDS011;33628;50.806;11.586;2023-06-26T14:24:18;9.27;;;5.70;;
47866;SDS011;33628;50.806;11.586;2023-06-26T14:26:45;8.43;;;6.25;;
47866;SDS011;33628;50.806;11.586;2023-06-26T14:29:12;10.65;;;6.20;;
47866;SDS011;33628;50.806;11.586;2023-06-26T14:31:42;9.52;;;5.68;;
47866;SDS011;33628;50.806;11.586;2023-06-26T14:34:09;9.55;;;6.00;;
47866;SDS011;33628;50.806;11.586;2023-06-26T14:36:36;13.13;;;6.22;;
47866;SDS011;33628;50.806;11.586;2023-06-26T14:39:03;9.65;;;6.18;;
47866;SDS011;33628;50.806;11.586;2023-06-26T14:41:30;14.13;;;6.25;;
47866;SDS011;33628;50.806;11.586;2023-06-26T14:43:56;9.90;;;5.78;;